sensor_id;sensor_type;location;lat;lon;timestamp;P1;durP1;ratioP1;P2;durP2;ratioP2
37453;SDS011;23315;52.078;4.756;2023-11-19T00:01:22;48.63;;;9.55;;
37453;SDS011;23315;52.078;4.756;2023-11-19T00:03:48;41.97;;;9.10;;
37453;SDS011;23315;52.078;4.756;2023-11-19T00:06:14;39.10;;;8.30;;
37453;SDS011;23315;52.078;4.756;2023-11-19T00:08:39;51.30;;;9.55;;
37453;SDS011;23315;52.078;4.756;2023-11-19T00:11:05;46.53;;;7.78;;
37453;SDS011;23315;52.078;4.756;2023-11-19T00:13:30;47.85;;;9.70;;
37453;SDS011;23315;52.078;4.756;2023-11-19T00:15:55;42.28;;;7.85;;
37453;SDS011;23315;52.078;4.756;2023-11-19T00:18:21;41.38;;;9.57;;
37453;SDS011;23315;52.078;4.756;2023-11-19T00:20:47;41.92;;;9.85;;
37453;SDS011;23315;52.078;4.756;2023-11-19T00:23:12;38.20;;;8.02;;
37453;SDS011;23315;52.078;4.756;2023-11-19T00:25:38;47.15;;;9.48;;
37453;SDS011;23315;52.078;4.756;2023-11-19T00:28:03;40.47;;;9.35;;
37453;SDS011;23315;52.078;4.756;2023-11-19T00:30:29;42.13;;;7.75;;
37453;SDS011;23315;52.078;4.756;2023-11-19T00:32:56;43.72;;;9.85;;
37453;SDS011;23315;52.078;4.756;2023-11-19T00:35:21;48.97;;;8.65;;
37453;SDS011;23315;52.078;4.756;2023-11-19T00:37:46;43.85;;;8.30;;
37453;SDS011;23315;52.078;4.756;2023-11-19T00:40:12;40.17;;;8.52;;
37453;SDS011;23315;52.078;4.756;2023-11-19T00:42:38;42.63;;;8.52;;
37453;SDS011;23315;52.078;4.756;2023-11-19T00:45:04;52.10;;;10.43;;
37453;SDS011;23315;52.078;4.756;2023-11-19T00:47:34;39.03;;;8.40;;
37453;SDS011;23315;52.078;4.756;2023-11-19T00:50:00;52.15;;;9.18;;
37453;SDS011;23315;52.078;4.756;2023-11-19T00:52:25;42.03;;;9.25;;
37453;SDS011;23315;52.078;4.756;2023-11-19T00:54:50;51.15;;;10.50;;
37453;SDS011;23315;52.078;4.756;2023-11-19T00:57:16;48.35;;;9.93;;
37453;SDS011;23315;52.078;4.756;2023-11-19T00:59:42;37.25;;;9.73;;
37453;SDS011;23315;52.078;4.756;2023-11-19T01:02:07;48.45;;;8.57;;
37453;SDS011;23315;52.078;4.756;2023-11-19T01:04:33;42.30;;;8.88;;
37453;SDS011;23315;52.078;4.756;2023-11-19T01:07:01;47.63;;;9.65;;
37453;SDS011;23315;52.078;4.756;2023-11-19T01:09:26;47.65;;;8.35;;
37453;SDS011;23315;52.078;4.756;2023-11-19T01:11:51;47.92;;;9.05;;
37453;SDS011;23315;52.078;4.756;2023-11-19T01:14:17;48.25;;;9.50;;
37453;SDS011;23315;52.078;4.756;2023-11-19T01:16:42;50.50;;;9.85;;
37453;SDS011;23315;52.078;4.756;2023-11-19T01:19:08;53.15;;;9.98;;
37453;SDS011;23315;52.078;4.756;2023-11-19T01:21:33;49.03;;;8.35;;
37453;SDS011;23315;52.078;4.756;2023-11-19T01:23:58;50.42;;;10.25;;
37453;SDS011;23315;52.078;4.756;2023-11-19T01:26:29;33.42;;;7.70;;
37453;SDS011;23315;52.078;4.756;2023-11-19T01:28:54;43.88;;;8.82;;
37453;SDS011;23315;52.078;4.756;2023-11-19T01:31:19;55.45;;;9.75;;
37453;SDS011;23315;52.078;4.756;2023-11-19T01:33:45;38.53;;;8.63;;
37453;SDS011;23315;52.078;4.756;2023-11-19T01:36:14;47.55;;;9.30;;
37453;SDS011;23315;52.078;4.756;2023-11-19T01:38:39;49.28;;;9.90;;
37453;SDS011;23315;52.078;4.756;2023-11-19T01:41:05;42.08;;;8.98;;
37453;SDS011;23315;52.078;4.756;2023-11-19T01:43:39;50.67;;;8.82;;
37453;SDS011;23315;52.078;4.756;2023-11-19T01:46:06;52.33;;;10.07;;
37453;SDS011;23315;52.078;4.756;2023-11-19T01:48:34;63.97;;;10.77;;
37453;SDS011;23315;52.078;4.756;2023-11-19T01:51:01;53.65;;;11.35;;
37453;SDS011;23315;52.078;4.756;2023-11-19T01:53:28;62.20;;;10.60;;
37453;SDS011;23315;52.078;4.756;2023-11-19T01:55:54;52.60;;;10.70;;
37453;SDS011;23315;52.078;4.756;2023-11-19T01:58:19;60.38;;;11.57;;
37453;SDS011;23315;52.078;4.756;2023-11-19T02:00:45;50.38;;;9.60;;
37453;SDS011;23315;52.078;4.756;2023-11-19T02:03:11;48.97;;;10.30;;
37453;SDS011;23315;52.078;4.756;2023-11-19T02:05:36;52.97;;;9.52;;
37453;SDS011;23315;52.078;4.756;2023-11-19T02:08:02;62.47;;;10.30;;
37453;SDS011;23315;52.078;4.756;2023-11-19T02:10:28;46.33;;;10.35;;
37453;SDS011;23315;52.078;4.756;2023-11-19T02:12:53;50.38;;;10.20;;
37453;SDS011;23315;52.078;4.756;2023-11-19T02:15:20;56.83;;;10.10;;
37453;SDS011;23315;52.078;4.756;2023-11-19T02:17:49;42.55;;;9.65;;
37453;SDS011;23315;52.078;4.756;2023-11-19T02:20:18;60.00;;;10.45;;
37453;SDS011;23315;52.078;4.756;2023-11-19T02:22:45;62.30;;;9.85;;
37453;SDS011;23315;52.078;4.756;2023-11-19T02:25:15;52.42;;;11.15;;
37453;SDS011;23315;52.078;4.756;2023-11-19T02:27:46;53.42;;;11.43;;
37453;SDS011;23315;52.078;4.756;2023-11-19T02:30:13;58.80;;;10.20;;
37453;SDS011;23315;52.078;4.756;2023-11-19T02:32:40;51.35;;;10.20;;
37453;SDS011;23315;52.078;4.756;2023-11-19T02:35:06;57.08;;;11.35;;
37453;SDS011;23315;52.078;4.756;2023-11-19T02:37:33;49.55;;;10.20;;
37453;SDS011;23315;52.078;4.756;2023-11-19T02:39:59;69.47;;;11.60;;
37453;SDS011;23315;52.078;4.756;2023-11-19T02:42:34;61.50;;;12.68;;
37453;SDS011;23315;52.078;4.756;2023-11-19T02:45:00;50.55;;;9.40;;
37453;SDS011;23315;52.078;4.756;2023-11-19T02:47:26;49.35;;;10.20;;
37453;SDS011;23315;52.078;4.756;2023-11-19T02:49:52;59.42;;;10.73;;
37453;SDS011;23315;52.078;4.756;2023-11-19T02:52:18;63.47;;;11.73;;
37453;SDS011;23315;52.078;4.756;2023-11-19T02:54:43;49.10;;;11.95;;
37453;SDS011;23315;52.078;4.756;2023-11-19T02:57:09;68.20;;;12.10;;
37453;SDS011;23315;52.078;4.756;2023-11-19T02:59:37;59.75;;;11.60;;
37453;SDS011;23315;52.078;4.756;2023-11-19T03:02:08;58.15;;;11.05;;
37453;SDS011;23315;52.078;4.756;2023-11-19T03:04:37;67.38;;;11.98;;
37453;SDS011;23315;52.078;4.756;2023-11-19T03:07:07;63.33;;;10.18;;
37453;SDS011;23315;52.078;4.756;2023-11-19T03:09:33;69.15;;;11.85;;
37453;SDS011;23315;52.078;4.756;2023-11-19T03:12:01;70.07;;;12.65;;
37453;SDS011;23315;52.078;4.756;2023-11-19T03:14:26;61.85;;;11.68;;
37453;SDS011;23315;52.078;4.756;2023-11-19T03:16:52;58.97;;;10.70;;
37453;SDS011;23315;52.078;4.756;2023-11-19T03:19:18;51.20;;;11.15;;
37453;SDS011;23315;52.078;4.756;2023-11-19T03:21:43;54.58;;;10.57;;
37453;SDS011;23315;52.078;4.756;2023-11-19T03:24:09;63.95;;;9.80;;
37453;SDS011;23315;52.078;4.756;2023-11-19T03:26:35;52.97;;;8.93;;
37453;SDS011;23315;52.078;4.756;2023-11-19T03:29:02;52.65;;;10.10;;
37453;SDS011;23315;52.078;4.756;2023-11-19T03:31:27;50.80;;;9.63;;
37453;SDS011;23315;52.078;4.756;2023-11-19T03:33:52;57.20;;;10.95;;
37453;SDS011;23315;52.078;4.756;2023-11-19T03:36:18;46.17;;;10.50;;
37453;SDS011;23315;52.078;4.756;2023-11-19T03:38:43;50.88;;;11.43;;
37453;SDS011;23315;52.078;4.756;2023-11-19T03:41:12;53.17;;;9.60;;
37453;SDS011;23315;52.078;4.756;2023-11-19T03:43:38;53.25;;;10.13;;
37453;SDS011;23315;52.078;4.756;2023-11-19T03:46:04;55.08;;;10.13;;
37453;SDS011;23315;52.078;4.756;2023-11-19T03:48:30;52.35;;;10.27;;
37453;SDS011;23315;52.078;4.756;2023-11-19T03:50:56;60.20;;;12.20;;
37453;SDS011;23315;52.078;4.756;2023-11-19T03:53:21;39.88;;;10.48;;
37453;SDS011;23315;52.078;4.756;2023-11-19T03:55:46;65.85;;;11.48;;
37453;SDS011;23315;52.078;4.756;2023-11-19T03:58:12;60.83;;;11.55;;
37453;SDS011;23315;52.078;4.756;2023-11-19T04:00:37;59.83;;;11.93;;
37453;SDS011;23315;52.078;4.756;2023-11-19T04:03:02;45.42;;;9.85;;
37453;SDS011;23315;52.078;4.756;2023-11-19T04:05:28;52.42;;;11.48;;
37453;SDS011;23315;52.078;4.756;2023-11-19T04:07:53;58.30;;;10.98;;
37453;SDS011;23315;52.078;4.756;2023-11-19T04:10:18;52.50;;;10.40;;
37453;SDS011;23315;52.078;4.756;2023-11-19T04:12:45;54.80;;;9.60;;
37453;SDS011;23315;52.078;4.756;2023-11-19T04:15:11;54.45;;;10.73;;
37453;SDS011;23315;52.078;4.756;2023-11-19T04:17:36;49.25;;;10.63;;
37453;SDS011;23315;52.078;4.756;2023-11-19T04:20:02;58.13;;;12.05;;
37453;SDS011;23315;52.078;4.756;2023-11-19T04:22:29;71.75;;;14.93;;
37453;SDS011;23315;52.078;4.756;2023-11-19T04:24:54;57.25;;;12.10;;
37453;SDS011;23315;52.078;4.756;2023-11-19T04:27:19;52.10;;;11.30;;
37453;SDS011;23315;52.078;4.756;2023-11-19T04:29:45;52.65;;;9.95;;
37453;SDS011;23315;52.078;4.756;2023-11-19T04:32:12;51.42;;;9.30;;
37453;SDS011;23315;52.078;4.756;2023-11-19T04:34:37;59.80;;;9.38;;
37453;SDS011;23315;52.078;4.756;2023-11-19T04:37:03;57.65;;;9.63;;
37453;SDS011;23315;52.078;4.756;2023-11-19T04:39:29;56.28;;;9.68;;
37453;SDS011;23315;52.078;4.756;2023-11-19T04:41:55;55.85;;;9.95;;
37453;SDS011;23315;52.078;4.756;2023-11-19T04:44:20;62.25;;;11.13;;
37453;SDS011;23315;52.078;4.756;2023-11-19T04:46:46;39.55;;;9.07;;
37453;SDS011;23315;52.078;4.756;2023-11-19T04:49:11;60.13;;;10.07;;
37453;SDS011;23315;52.078;4.756;2023-11-19T04:51:38;58.47;;;12.57;;
37453;SDS011;23315;52.078;4.756;2023-11-19T04:54:10;55.42;;;10.82;;
37453;SDS011;23315;52.078;4.756;2023-11-19T04:56:36;39.33;;;8.30;;
37453;SDS011;23315;52.078;4.756;2023-11-19T04:59:05;54.50;;;10.90;;
37453;SDS011;23315;52.078;4.756;2023-11-19T05:01:31;55.42;;;10.35;;
37453;SDS011;23315;52.078;4.756;2023-11-19T05:04:00;48.03;;;10.27;;
37453;SDS011;23315;52.078;4.756;2023-11-19T05:06:29;51.30;;;10.50;;
37453;SDS011;23315;52.078;4.756;2023-11-19T05:08:55;59.58;;;9.65;;
37453;SDS011;23315;52.078;4.756;2023-11-19T05:11:21;51.75;;;9.35;;
37453;SDS011;23315;52.078;4.756;2023-11-19T05:13:46;39.80;;;10.73;;
37453;SDS011;23315;52.078;4.756;2023-11-19T05:16:12;42.40;;;9.95;;
37453;SDS011;23315;52.078;4.756;2023-11-19T05:18:40;55.95;;;11.02;;
37453;SDS011;23315;52.078;4.756;2023-11-19T05:21:06;44.50;;;10.18;;
37453;SDS011;23315;52.078;4.756;2023-11-19T05:23:34;49.70;;;9.70;;
37453;SDS011;23315;52.078;4.756;2023-11-19T05:26:00;51.95;;;10.55;;
37453;SDS011;23315;52.078;4.756;2023-11-19T05:28:26;50.85;;;9.77;;
37453;SDS011;23315;52.078;4.756;2023-11-19T05:30:51;52.08;;;10.00;;
37453;SDS011;23315;52.078;4.756;2023-11-19T05:33:17;67.65;;;10.48;;
37453;SDS011;23315;52.078;4.756;2023-11-19T05:35:42;46.15;;;11.05;;
37453;SDS011;23315;52.078;4.756;2023-11-19T05:38:07;57.42;;;9.57;;
37453;SDS011;23315;52.078;4.756;2023-11-19T05:40:34;41.65;;;8.70;;
37453;SDS011;23315;52.078;4.756;2023-11-19T05:42:59;55.90;;;9.27;;
37453;SDS011;23315;52.078;4.756;2023-11-19T05:45:25;47.88;;;10.15;;
37453;SDS011;23315;52.078;4.756;2023-11-19T05:47:51;44.92;;;9.00;;
37453;SDS011;23315;52.078;4.756;2023-11-19T05:50:17;35.17;;;8.95;;
37453;SDS011;23315;52.078;4.756;2023-11-19T05:52:42;49.83;;;9.93;;
37453;SDS011;23315;52.078;4.756;2023-11-19T05:55:08;53.03;;;10.32;;
37453;SDS011;23315;52.078;4.756;2023-11-19T05:57:37;66.60;;;10.02;;
37453;SDS011;23315;52.078;4.756;2023-11-19T06:00:03;57.40;;;9.75;;
37453;SDS011;23315;52.078;4.756;2023-11-19T06:02:32;56.50;;;11.70;;
37453;SDS011;23315;52.078;4.756;2023-11-19T06:04:58;49.00;;;9.80;;
37453;SDS011;23315;52.078;4.756;2023-11-19T06:07:23;53.70;;;10.10;;
37453;SDS011;23315;52.078;4.756;2023-11-19T06:09:48;48.17;;;9.93;;
37453;SDS011;23315;52.078;4.756;2023-11-19T06:12:14;50.55;;;11.05;;
37453;SDS011;23315;52.078;4.756;2023-11-19T06:14:39;64.07;;;10.77;;
37453;SDS011;23315;52.078;4.756;2023-11-19T06:17:05;47.97;;;9.85;;
37453;SDS011;23315;52.078;4.756;2023-11-19T06:19:30;47.88;;;10.52;;
37453;SDS011;23315;52.078;4.756;2023-11-19T06:21:56;49.78;;;10.65;;
37453;SDS011;23315;52.078;4.756;2023-11-19T06:24:21;48.15;;;9.55;;
37453;SDS011;23315;52.078;4.756;2023-11-19T06:26:47;63.42;;;10.70;;
37453;SDS011;23315;52.078;4.756;2023-11-19T06:29:12;55.38;;;10.27;;
37453;SDS011;23315;52.078;4.756;2023-11-19T06:31:43;46.05;;;8.95;;
37453;SDS011;23315;52.078;4.756;2023-11-19T06:34:08;62.80;;;10.40;;
37453;SDS011;23315;52.078;4.756;2023-11-19T06:36:34;45.90;;;8.20;;
37453;SDS011;23315;52.078;4.756;2023-11-19T06:39:00;50.13;;;9.48;;
37453;SDS011;23315;52.078;4.756;2023-11-19T06:41:25;46.10;;;9.20;;
37453;SDS011;23315;52.078;4.756;2023-11-19T06:43:50;59.30;;;10.10;;
37453;SDS011;23315;52.078;4.756;2023-11-19T06:46:17;55.10;;;10.10;;
37453;SDS011;23315;52.078;4.756;2023-11-19T06:48:42;57.42;;;11.13;;
37453;SDS011;23315;52.078;4.756;2023-11-19T06:51:09;50.65;;;10.10;;
37453;SDS011;23315;52.078;4.756;2023-11-19T06:53:34;52.28;;;11.38;;
37453;SDS011;23315;52.078;4.756;2023-11-19T06:56:01;53.97;;;9.60;;
37453;SDS011;23315;52.078;4.756;2023-11-19T06:58:28;61.78;;;11.38;;
37453;SDS011;23315;52.078;4.756;2023-11-19T07:00:53;50.10;;;9.73;;
37453;SDS011;23315;52.078;4.756;2023-11-19T07:03:18;58.45;;;10.32;;
37453;SDS011;23315;52.078;4.756;2023-11-19T07:05:45;55.63;;;10.43;;
37453;SDS011;23315;52.078;4.756;2023-11-19T07:08:10;62.20;;;10.50;;
37453;SDS011;23315;52.078;4.756;2023-11-19T07:10:36;42.40;;;8.93;;
37453;SDS011;23315;52.078;4.756;2023-11-19T07:13:01;45.63;;;10.65;;
37453;SDS011;23315;52.078;4.756;2023-11-19T07:15:27;48.60;;;9.90;;
37453;SDS011;23315;52.078;4.756;2023-11-19T07:17:52;48.83;;;11.00;;
37453;SDS011;23315;52.078;4.756;2023-11-19T07:20:19;56.88;;;11.32;;
37453;SDS011;23315;52.078;4.756;2023-11-19T07:22:44;59.00;;;10.85;;
37453;SDS011;23315;52.078;4.756;2023-11-19T07:25:12;45.58;;;8.60;;
37453;SDS011;23315;52.078;4.756;2023-11-19T07:27:38;46.50;;;9.27;;
37453;SDS011;23315;52.078;4.756;2023-11-19T07:30:03;47.95;;;9.05;;
37453;SDS011;23315;52.078;4.756;2023-11-19T07:32:30;63.00;;;9.73;;
37453;SDS011;23315;52.078;4.756;2023-11-19T07:34:55;47.30;;;10.45;;
37453;SDS011;23315;52.078;4.756;2023-11-19T07:37:21;51.80;;;10.63;;
37453;SDS011;23315;52.078;4.756;2023-11-19T07:39:47;39.75;;;9.02;;
37453;SDS011;23315;52.078;4.756;2023-11-19T07:42:12;48.85;;;11.30;;
37453;SDS011;23315;52.078;4.756;2023-11-19T07:44:38;47.05;;;8.18;;
37453;SDS011;23315;52.078;4.756;2023-11-19T07:47:03;52.85;;;8.82;;
37453;SDS011;23315;52.078;4.756;2023-11-19T07:49:29;40.67;;;9.25;;
37453;SDS011;23315;52.078;4.756;2023-11-19T07:51:55;47.95;;;9.25;;
37453;SDS011;23315;52.078;4.756;2023-11-19T07:54:21;50.05;;;10.32;;
37453;SDS011;23315;52.078;4.756;2023-11-19T07:56:46;49.70;;;9.07;;
37453;SDS011;23315;52.078;4.756;2023-11-19T07:59:12;47.00;;;8.90;;
37453;SDS011;23315;52.078;4.756;2023-11-19T08:01:37;38.40;;;8.40;;
37453;SDS011;23315;52.078;4.756;2023-11-19T08:04:02;46.40;;;8.80;;
37453;SDS011;23315;52.078;4.756;2023-11-19T08:06:28;48.90;;;9.30;;
37453;SDS011;23315;52.078;4.756;2023-11-19T08:08:53;53.38;;;9.13;;
37453;SDS011;23315;52.078;4.756;2023-11-19T08:11:20;58.42;;;10.13;;
37453;SDS011;23315;52.078;4.756;2023-11-19T08:13:45;42.08;;;10.43;;
37453;SDS011;23315;52.078;4.756;2023-11-19T08:16:10;41.63;;;9.07;;
37453;SDS011;23315;52.078;4.756;2023-11-19T08:18:36;36.47;;;8.63;;
37453;SDS011;23315;52.078;4.756;2023-11-19T08:21:01;46.15;;;9.70;;
37453;SDS011;23315;52.078;4.756;2023-11-19T08:23:29;52.20;;;9.68;;
37453;SDS011;23315;52.078;4.756;2023-11-19T08:25:55;39.38;;;10.05;;
37453;SDS011;23315;52.078;4.756;2023-11-19T08:28:20;48.22;;;9.07;;
37453;SDS011;23315;52.078;4.756;2023-11-19T08:30:46;49.58;;;9.43;;
37453;SDS011;23315;52.078;4.756;2023-11-19T08:33:11;54.60;;;10.88;;
37453;SDS011;23315;52.078;4.756;2023-11-19T08:35:36;47.63;;;9.13;;
37453;SDS011;23315;52.078;4.756;2023-11-19T08:38:02;42.17;;;8.32;;
37453;SDS011;23315;52.078;4.756;2023-11-19T08:40:27;60.20;;;10.48;;
37453;SDS011;23315;52.078;4.756;2023-11-19T08:42:54;56.00;;;9.70;;
37453;SDS011;23315;52.078;4.756;2023-11-19T08:45:20;45.15;;;9.48;;
37453;SDS011;23315;52.078;4.756;2023-11-19T08:47:46;49.25;;;8.35;;
37453;SDS011;23315;52.078;4.756;2023-11-19T08:50:11;50.90;;;9.55;;
37453;SDS011;23315;52.078;4.756;2023-11-19T08:52:37;36.10;;;8.82;;
37453;SDS011;23315;52.078;4.756;2023-11-19T08:55:02;37.97;;;8.70;;
37453;SDS011;23315;52.078;4.756;2023-11-19T08:57:30;46.72;;;10.73;;
37453;SDS011;23315;52.078;4.756;2023-11-19T08:59:55;50.15;;;9.02;;
37453;SDS011;23315;52.078;4.756;2023-11-19T09:02:21;44.75;;;9.38;;
37453;SDS011;23315;52.078;4.756;2023-11-19T09:04:46;51.35;;;9.15;;
37453;SDS011;23315;52.078;4.756;2023-11-19T09:07:11;49.92;;;9.00;;
37453;SDS011;23315;52.078;4.756;2023-11-19T09:09:37;51.05;;;9.02;;
37453;SDS011;23315;52.078;4.756;2023-11-19T09:12:03;53.42;;;8.48;;
37453;SDS011;23315;52.078;4.756;2023-11-19T09:14:29;39.58;;;9.27;;
37453;SDS011;23315;52.078;4.756;2023-11-19T09:16:55;42.10;;;8.75;;
37453;SDS011;23315;52.078;4.756;2023-11-19T09:19:21;45.40;;;7.97;;
37453;SDS011;23315;52.078;4.756;2023-11-19T09:21:46;37.50;;;9.73;;
37453;SDS011;23315;52.078;4.756;2023-11-19T09:24:13;55.58;;;11.40;;
37453;SDS011;23315;52.078;4.756;2023-11-19T09:26:38;53.63;;;9.73;;
37453;SDS011;23315;52.078;4.756;2023-11-19T09:29:06;44.78;;;9.38;;
37453;SDS011;23315;52.078;4.756;2023-11-19T09:31:32;59.50;;;10.88;;
37453;SDS011;23315;52.078;4.756;2023-11-19T09:33:57;44.80;;;9.55;;
37453;SDS011;23315;52.078;4.756;2023-11-19T09:36:23;53.55;;;9.20;;
37453;SDS011;23315;52.078;4.756;2023-11-19T09:38:48;53.03;;;10.02;;
37453;SDS011;23315;52.078;4.756;2023-11-19T09:41:13;43.75;;;9.15;;
37453;SDS011;23315;52.078;4.756;2023-11-19T09:43:39;46.28;;;9.98;;
37453;SDS011;23315;52.078;4.756;2023-11-19T09:46:06;48.13;;;9.45;;
37453;SDS011;23315;52.078;4.756;2023-11-19T09:48:32;51.63;;;9.65;;
37453;SDS011;23315;52.078;4.756;2023-11-19T09:50:59;46.50;;;8.40;;
37453;SDS011;23315;52.078;4.756;2023-11-19T09:53:25;44.83;;;9.82;;
37453;SDS011;23315;52.078;4.756;2023-11-19T09:55:51;51.72;;;10.10;;
37453;SDS011;23315;52.078;4.756;2023-11-19T09:58:18;54.80;;;9.20;;
37453;SDS011;23315;52.078;4.756;2023-11-19T10:00:43;50.28;;;10.60;;
37453;SDS011;23315;52.078;4.756;2023-11-19T10:03:08;50.22;;;9.23;;
37453;SDS011;23315;52.078;4.756;2023-11-19T10:05:36;42.00;;;9.32;;
37453;SDS011;23315;52.078;4.756;2023-11-19T10:08:03;53.75;;;10.02;;
37453;SDS011;23315;52.078;4.756;2023-11-19T10:10:28;47.97;;;8.35;;
37453;SDS011;23315;52.078;4.756;2023-11-19T10:12:54;45.00;;;9.18;;
37453;SDS011;23315;52.078;4.756;2023-11-19T10:15:20;43.75;;;8.90;;
37453;SDS011;23315;52.078;4.756;2023-11-19T10:17:50;50.75;;;10.90;;
37453;SDS011;23315;52.078;4.756;2023-11-19T10:20:15;42.53;;;12.20;;
37453;SDS011;23315;52.078;4.756;2023-11-19T10:22:41;40.08;;;7.03;;
37453;SDS011;23315;52.078;4.756;2023-11-19T10:25:22;36.00;;;7.90;;
37453;SDS011;23315;52.078;4.756;2023-11-19T10:27:49;43.20;;;8.45;;
37453;SDS011;23315;52.078;4.756;2023-11-19T10:30:20;49.85;;;8.75;;
37453;SDS011;23315;52.078;4.756;2023-11-19T10:33:08;36.85;;;8.77;;
37453;SDS011;23315;52.078;4.756;2023-11-19T10:38:21;40.45;;;8.23;;
37453;SDS011;23315;52.078;4.756;2023-11-19T10:40:47;46.85;;;8.77;;
37453;SDS011;23315;52.078;4.756;2023-11-19T10:43:14;44.45;;;9.88;;
37453;SDS011;23315;52.078;4.756;2023-11-19T10:45:40;48.67;;;11.82;;
37453;SDS011;23315;52.078;4.756;2023-11-19T10:48:06;40.60;;;8.93;;
37453;SDS011;23315;52.078;4.756;2023-11-19T10:50:35;39.78;;;9.50;;
37453;SDS011;23315;52.078;4.756;2023-11-19T10:53:02;34.88;;;6.80;;
37453;SDS011;23315;52.078;4.756;2023-11-19T10:55:32;28.75;;;7.22;;
37453;SDS011;23315;52.078;4.756;2023-11-19T10:58:00;40.13;;;8.02;;
37453;SDS011;23315;52.078;4.756;2023-11-19T11:00:30;41.13;;;8.35;;
37453;SDS011;23315;52.078;4.756;2023-11-19T11:03:11;36.33;;;8.20;;
37453;SDS011;23315;52.078;4.756;2023-11-19T11:05:41;44.40;;;8.50;;
37453;SDS011;23315;52.078;4.756;2023-11-19T11:08:07;49.38;;;8.38;;
37453;SDS011;23315;52.078;4.756;2023-11-19T11:10:35;43.35;;;8.27;;
37453;SDS011;23315;52.078;4.756;2023-11-19T11:13:04;46.30;;;8.05;;
37453;SDS011;23315;52.078;4.756;2023-11-19T11:15:30;38.72;;;7.97;;
37453;SDS011;23315;52.078;4.756;2023-11-19T11:18:00;37.47;;;7.80;;
37453;SDS011;23315;52.078;4.756;2023-11-19T11:20:32;41.85;;;7.97;;
37453;SDS011;23315;52.078;4.756;2023-11-19T11:25:42;34.40;;;6.55;;
37453;SDS011;23315;52.078;4.756;2023-11-19T11:30:48;28.20;;;5.95;;
37453;SDS011;23315;52.078;4.756;2023-11-19T11:38:36;37.92;;;7.68;;
37453;SDS011;23315;52.078;4.756;2023-11-19T11:43:50;39.00;;;7.63;;
37453;SDS011;23315;52.078;4.756;2023-11-19T11:48:58;43.00;;;7.63;;
37453;SDS011;23315;52.078;4.756;2023-11-19T11:54:09;45.22;;;9.23;;
37453;SDS011;23315;52.078;4.756;2023-11-19T11:56:38;43.72;;;8.48;;
37453;SDS011;23315;52.078;4.756;2023-11-19T11:59:19;37.25;;;7.10;;
37453;SDS011;23315;52.078;4.756;2023-11-19T12:01:59;34.65;;;7.20;;
37453;SDS011;23315;52.078;4.756;2023-11-19T12:04:28;40.00;;;7.63;;
37453;SDS011;23315;52.078;4.756;2023-11-19T12:07:11;35.25;;;7.75;;
37453;SDS011;23315;52.078;4.756;2023-11-19T12:09:39;38.63;;;8.70;;
37453;SDS011;23315;52.078;4.756;2023-11-19T12:20:14;37.63;;;8.70;;
37453;SDS011;23315;52.078;4.756;2023-11-19T12:22:41;32.60;;;7.63;;
37453;SDS011;23315;52.078;4.756;2023-11-19T12:25:08;40.72;;;9.00;;
37453;SDS011;23315;52.078;4.756;2023-11-19T12:27:44;36.65;;;7.57;;
37453;SDS011;23315;52.078;4.756;2023-11-19T12:30:10;44.05;;;8.48;;
37453;SDS011;23315;52.078;4.756;2023-11-19T12:32:42;41.85;;;8.13;;
37453;SDS011;23315;52.078;4.756;2023-11-19T12:35:09;37.03;;;7.25;;
37453;SDS011;23315;52.078;4.756;2023-11-19T12:37:45;40.22;;;8.05;;
37453;SDS011;23315;52.078;4.756;2023-11-19T12:40:21;25.65;;;5.38;;
37453;SDS011;23315;52.078;4.756;2023-11-19T12:42:50;42.90;;;7.13;;
37453;SDS011;23315;52.078;4.756;2023-11-19T12:45:17;27.08;;;5.88;;
37453;SDS011;23315;52.078;4.756;2023-11-19T12:47:44;31.33;;;7.13;;
37453;SDS011;23315;52.078;4.756;2023-11-19T12:50:12;36.58;;;7.30;;
37453;SDS011;23315;52.078;4.756;2023-11-19T12:52:37;26.73;;;6.13;;
37453;SDS011;23315;52.078;4.756;2023-11-19T12:55:03;30.67;;;5.15;;
37453;SDS011;23315;52.078;4.756;2023-11-19T12:57:48;28.80;;;5.88;;
37453;SDS011;23315;52.078;4.756;2023-11-19T13:00:20;35.53;;;5.43;;
37453;SDS011;23315;52.078;4.756;2023-11-19T13:02:49;33.75;;;6.82;;
37453;SDS011;23315;52.078;4.756;2023-11-19T13:08:00;45.55;;;7.22;;
37453;SDS011;23315;52.078;4.756;2023-11-19T13:10:26;39.50;;;8.57;;
37453;SDS011;23315;52.078;4.756;2023-11-19T13:13:02;34.72;;;7.78;;
37453;SDS011;23315;52.078;4.756;2023-11-19T13:15:31;48.72;;;7.35;;
37453;SDS011;23315;52.078;4.756;2023-11-19T13:17:58;45.60;;;8.50;;
37453;SDS011;23315;52.078;4.756;2023-11-19T13:20:23;37.42;;;8.63;;
37453;SDS011;23315;52.078;4.756;2023-11-19T13:22:58;41.05;;;7.18;;
37453;SDS011;23315;52.078;4.756;2023-11-19T13:25:25;41.33;;;7.03;;
37453;SDS011;23315;52.078;4.756;2023-11-19T13:27:51;37.60;;;7.88;;
37453;SDS011;23315;52.078;4.756;2023-11-19T13:30:17;32.08;;;6.50;;
37453;SDS011;23315;52.078;4.756;2023-11-19T13:32:43;42.45;;;6.65;;
37453;SDS011;23315;52.078;4.756;2023-11-19T13:35:09;34.67;;;7.30;;
37453;SDS011;23315;52.078;4.756;2023-11-19T13:37:35;38.65;;;7.13;;
37453;SDS011;23315;52.078;4.756;2023-11-19T13:40:00;35.83;;;7.38;;
37453;SDS011;23315;52.078;4.756;2023-11-19T13:42:26;34.72;;;6.50;;
37453;SDS011;23315;52.078;4.756;2023-11-19T13:44:52;38.35;;;7.75;;
37453;SDS011;23315;52.078;4.756;2023-11-19T13:47:17;39.50;;;7.35;;
37453;SDS011;23315;52.078;4.756;2023-11-19T13:49:44;41.97;;;8.40;;
37453;SDS011;23315;52.078;4.756;2023-11-19T13:52:09;36.55;;;7.22;;
37453;SDS011;23315;52.078;4.756;2023-11-19T13:54:36;45.55;;;8.93;;
37453;SDS011;23315;52.078;4.756;2023-11-19T13:57:01;32.30;;;7.63;;
37453;SDS011;23315;52.078;4.756;2023-11-19T13:59:29;34.92;;;7.57;;
37453;SDS011;23315;52.078;4.756;2023-11-19T14:01:54;39.70;;;7.78;;
37453;SDS011;23315;52.078;4.756;2023-11-19T14:04:19;39.00;;;7.15;;
37453;SDS011;23315;52.078;4.756;2023-11-19T14:06:46;37.47;;;7.43;;
37453;SDS011;23315;52.078;4.756;2023-11-19T14:09:11;37.05;;;7.25;;
37453;SDS011;23315;52.078;4.756;2023-11-19T14:11:37;34.83;;;6.72;;
37453;SDS011;23315;52.078;4.756;2023-11-19T14:14:03;36.83;;;7.50;;
37453;SDS011;23315;52.078;4.756;2023-11-19T14:16:28;41.28;;;8.23;;
37453;SDS011;23315;52.078;4.756;2023-11-19T14:18:54;42.78;;;8.10;;
37453;SDS011;23315;52.078;4.756;2023-11-19T14:21:20;37.90;;;6.50;;
37453;SDS011;23315;52.078;4.756;2023-11-19T14:23:45;38.10;;;8.02;;
37453;SDS011;23315;52.078;4.756;2023-11-19T14:26:11;37.10;;;7.03;;
37453;SDS011;23315;52.078;4.756;2023-11-19T14:28:37;35.60;;;7.68;;
37453;SDS011;23315;52.078;4.756;2023-11-19T14:31:03;33.08;;;6.45;;
37453;SDS011;23315;52.078;4.756;2023-11-19T14:33:29;40.10;;;8.23;;
37453;SDS011;23315;52.078;4.756;2023-11-19T14:35:54;33.90;;;5.97;;
37453;SDS011;23315;52.078;4.756;2023-11-19T14:38:19;33.22;;;6.95;;
37453;SDS011;23315;52.078;4.756;2023-11-19T14:40:45;45.53;;;8.90;;
37453;SDS011;23315;52.078;4.756;2023-11-19T14:43:10;42.40;;;8.07;;
37453;SDS011;23315;52.078;4.756;2023-11-19T14:45:35;35.10;;;7.38;;
37453;SDS011;23315;52.078;4.756;2023-11-19T14:48:01;38.42;;;7.72;;
37453;SDS011;23315;52.078;4.756;2023-11-19T14:50:26;45.05;;;8.40;;
37453;SDS011;23315;52.078;4.756;2023-11-19T14:52:53;37.80;;;6.93;;
37453;SDS011;23315;52.078;4.756;2023-11-19T14:55:18;36.85;;;7.22;;
37453;SDS011;23315;52.078;4.756;2023-11-19T14:57:43;42.40;;;7.78;;
37453;SDS011;23315;52.078;4.756;2023-11-19T15:00:09;42.78;;;7.70;;